createdAt,value
2022-12-26T00:01:37.671Z,1.25
2022-12-26T00:04:06.528Z,1.24
2022-12-26T00:06:54.537Z,1.21
2022-12-26T00:09:23.089Z,1.21
2022-12-26T00:11:51.581Z,1.23
2022-12-26T00:14:19.754Z,1.28
2022-12-26T00:16:47.873Z,1.32
2022-12-26T00:19:16.322Z,1.33
2022-12-26T00:21:44.452Z,1.38
2022-12-26T00:24:12.471Z,1.45
2022-12-26T00:26:40.624Z,1.51
2022-12-26T00:29:08.737Z,1.51
2022-12-26T00:31:36.932Z,1.46
2022-12-26T00:34:05.081Z,1.27
2022-12-26T00:36:34.247Z,1.07
2022-12-26T00:39:03.789Z,0.98
2022-12-26T00:41:32.301Z,0.94
2022-12-26T00:44:01.402Z,0.87
2022-12-26T00:46:29.683Z,0.83
2022-12-26T00:48:58.249Z,0.74
2022-12-26T00:51:26.835Z,0.69
2022-12-26T00:53:54.830Z,0.68
2022-12-26T00:56:22.761Z,0.67
2022-12-26T00:58:52.536Z,0.67
2022-12-26T01:01:23.343Z,0.67
2022-12-26T01:03:51.796Z,0.68
2022-12-26T01:06:19.825Z,0.72
2022-12-26T01:08:47.997Z,0.77
2022-12-26T01:11:37.373Z,0.75
2022-12-26T01:14:07.063Z,0.74
2022-12-26T01:16:35.405Z,0.78
2022-12-26T01:19:03.677Z,0.72
2022-12-26T01:21:32.026Z,0.76
2022-12-26T01:24:00.359Z,0.76
2022-12-26T01:26:28.432Z,0.77
2022-12-26T01:28:56.522Z,0.76
2022-12-26T01:31:24.666Z,0.79
2022-12-26T01:33:52.783Z,0.85
2022-12-26T01:36:20.751Z,0.89
2022-12-26T01:38:48.798Z,0.92
2022-12-26T01:41:17.137Z,0.97
2022-12-26T01:44:02.091Z,0.97
2022-12-26T01:46:42.814Z,0.98
2022-12-26T01:49:15.793Z,1.01
2022-12-26T01:51:50.428Z,1.02
2022-12-26T01:54:38.470Z,0.99
2022-12-26T01:57:12.604Z,1.03
2022-12-26T01:59:41.235Z,1.07
2022-12-26T02:02:09.532Z,1.11
2022-12-26T02:05:00.278Z,1.19
2022-12-26T02:07:28.705Z,1.25
2022-12-26T02:09:56.810Z,1.31
2022-12-26T02:12:35.861Z,1.42
2022-12-26T02:15:11.026Z,1.53
2022-12-26T02:17:40.481Z,1.59
2022-12-26T02:20:25.344Z,1.65
2022-12-26T02:23:30.390Z,1.69
2022-12-26T02:26:22.969Z,1.73
2022-12-26T02:29:17.273Z,1.74
2022-12-26T02:31:57.937Z,1.75
2022-12-26T02:34:42.422Z,1.76
2022-12-26T02:37:32.381Z,1.80
2022-12-26T02:40:38.876Z,1.89
2022-12-26T02:43:11.765Z,1.95
2022-12-26T02:46:15.550Z,1.99
2022-12-26T02:48:56.209Z,2.07
2022-12-26T02:52:14.695Z,2.15
2022-12-26T02:55:12.759Z,2.13
2022-12-26T02:58:10.164Z,2.11
2022-12-26T03:00:58.308Z,2.06
2022-12-26T03:03:48.799Z,2.08
2022-12-26T03:06:48.840Z,2.07
2022-12-26T03:09:40.591Z,2.11
2022-12-26T03:12:38.600Z,2.22
2022-12-26T03:15:09.719Z,2.29
2022-12-26T03:17:47.571Z,2.30
2022-12-26T03:20:36.058Z,2.31
2022-12-26T03:23:10.895Z,2.31
2022-12-26T03:26:20.526Z,2.22
2022-12-26T03:28:50.625Z,2.27
2022-12-26T03:31:19.095Z,2.26
2022-12-26T03:34:05.922Z,2.28
2022-12-26T03:36:56.062Z,2.25
2022-12-26T03:39:52.175Z,2.21
2022-12-26T03:43:14.186Z,2.22
2022-12-26T03:46:10.986Z,2.27
2022-12-26T03:49:08.568Z,2.31
2022-12-26T03:52:05.810Z,2.45
2022-12-26T03:54:57.607Z,2.54
2022-12-26T03:57:49.396Z,2.55
2022-12-26T04:00:36.813Z,2.49
2022-12-26T04:03:29.544Z,2.42
2022-12-26T04:06:21.493Z,2.43
2022-12-26T04:09:08.214Z,2.48
2022-12-26T04:11:55.888Z,2.51
2022-12-26T04:14:52.057Z,2.52
2022-12-26T04:17:54.235Z,2.53
2022-12-26T04:20:32.092Z,2.55
2022-12-26T04:23:30.794Z,2.56
2022-12-26T04:26:28.102Z,2.58
2022-12-26T04:29:14.879Z,2.64
2022-12-26T04:32:07.250Z,2.71
2022-12-26T04:35:24.841Z,2.76
2022-12-26T04:38:11.744Z,2.78
2022-12-26T04:41:03.512Z,2.83
2022-12-26T04:43:52.221Z,2.88
2022-12-26T04:46:22.342Z,2.93
2022-12-26T04:49:11.619Z,2.97
2022-12-26T04:51:40.144Z,3.00
2022-12-26T04:54:08.304Z,3.01
2022-12-26T04:56:36.440Z,3.01
2022-12-26T04:59:04.565Z,3.02
2022-12-26T05:01:51.282Z,3.02
2022-12-26T05:04:38.059Z,3.06
2022-12-26T05:07:30.785Z,3.08
2022-12-26T05:09:58.692Z,3.07
2022-12-26T05:12:26.700Z,3.08
2022-12-26T05:14:54.919Z,3.08
2022-12-26T05:17:41.636Z,3.08
2022-12-26T05:20:30.949Z,3.13
2022-12-26T05:23:19.697Z,3.14
2022-12-26T05:26:07.025Z,3.20
2022-12-26T05:28:44.207Z,3.22
2022-12-26T05:31:17.466Z,3.27
2022-12-26T05:34:04.289Z,3.28
2022-12-26T05:36:38.962Z,3.25
2022-12-26T05:39:08.153Z,3.23
2022-12-26T05:41:37.245Z,3.23
2022-12-26T05:44:05.514Z,3.26
2022-12-26T05:46:34.401Z,3.28
2022-12-26T05:49:03.633Z,3.29
2022-12-26T05:51:32.040Z,3.32
2022-12-26T05:54:00.307Z,3.27
2022-12-26T05:56:28.607Z,3.19
2022-12-26T05:59:01.227Z,3.15
2022-12-26T06:01:30.542Z,3.11
2022-12-26T06:04:00.310Z,3.10
2022-12-26T06:06:28.912Z,3.03
2022-12-26T06:08:57.714Z,2.99
2022-12-26T06:11:26.913Z,3.01
2022-12-26T06:13:55.633Z,3.03
2022-12-26T06:16:23.844Z,2.99
2022-12-26T06:18:52.098Z,2.97
2022-12-26T06:21:20.664Z,2.98
2022-12-26T06:23:49.278Z,2.99
2022-12-26T06:26:17.617Z,2.99
2022-12-26T06:28:46.900Z,2.99
2022-12-26T06:31:20.609Z,2.99
2022-12-26T06:33:51.640Z,3.00
2022-12-26T06:36:22.401Z,2.99
2022-12-26T06:38:51.373Z,3.02
2022-12-26T06:41:21.279Z,3.06
2022-12-26T06:43:49.468Z,3.10
2022-12-26T06:46:20.388Z,3.10
2022-12-26T06:48:48.541Z,3.10
2022-12-26T06:51:19.894Z,3.13
2022-12-26T06:53:49.279Z,3.18
2022-12-26T06:56:21.538Z,3.25
2022-12-26T06:59:01.341Z,3.31
2022-12-26T07:01:31.185Z,3.36
2022-12-26T07:04:00.304Z,3.41
2022-12-26T07:06:33.664Z,3.42
2022-12-26T07:09:11.013Z,3.42
2022-12-26T07:11:41.035Z,3.45
2022-12-26T07:14:09.731Z,3.50
2022-12-26T07:16:38.678Z,3.50
2022-12-26T07:19:07.202Z,3.48
2022-12-26T07:21:40.377Z,3.47
2022-12-26T07:24:22.259Z,3.47
2022-12-26T07:26:50.481Z,3.50
2022-12-26T07:29:18.971Z,3.53
2022-12-26T07:31:47.091Z,3.57
2022-12-26T07:34:15.803Z,3.60
2022-12-26T07:36:43.723Z,3.60
2022-12-26T07:39:14.368Z,3.67
2022-12-26T07:41:57.653Z,3.75
2022-12-26T07:44:27.766Z,3.77
2022-12-26T07:46:56.662Z,3.82
2022-12-26T07:49:24.834Z,3.92
2022-12-26T07:51:53.058Z,4.04
2022-12-26T07:54:21.231Z,4.08
2022-12-26T07:56:49.309Z,4.13
2022-12-26T07:59:18.126Z,4.19
2022-12-26T08:01:46.323Z,4.23
2022-12-26T08:04:14.785Z,4.23
2022-12-26T08:06:42.900Z,4.22
2022-12-26T08:09:16.086Z,4.22
2022-12-26T08:11:45.164Z,4.24
2022-12-26T08:14:14.028Z,4.28
2022-12-26T08:16:47.924Z,4.35
2022-12-26T08:19:19.382Z,4.45
2022-12-26T08:21:47.421Z,4.56
2022-12-26T08:24:16.204Z,4.66
2022-12-26T08:26:44.325Z,4.75
2022-12-26T08:29:12.507Z,4.83
2022-12-26T08:31:40.639Z,4.87
2022-12-26T08:34:08.676Z,4.90
2022-12-26T08:36:36.896Z,4.94
2022-12-26T08:39:05.261Z,4.95
2022-12-26T08:41:33.330Z,4.97
2022-12-26T08:44:26.760Z,4.95
2022-12-26T08:46:49.588Z,4.95
2022-12-26T08:49:17.662Z,4.98
2022-12-26T08:51:45.939Z,5.01
2022-12-26T08:54:13.957Z,5.05
2022-12-26T08:56:42.087Z,5.07
2022-12-26T08:59:10.088Z,5.08
2022-12-26T09:01:39.012Z,5.06
2022-12-26T09:04:07.517Z,5.03
2022-12-26T09:06:37.324Z,5.02
2022-12-26T09:09:06.483Z,5.08
2022-12-26T09:11:34.811Z,5.18
2022-12-26T09:14:04.285Z,5.29
2022-12-26T09:16:39.336Z,5.39
2022-12-26T09:19:14.186Z,5.48
2022-12-26T09:21:42.298Z,5.52
2022-12-26T09:24:13.149Z,5.56
2022-12-26T09:26:42.245Z,5.57
2022-12-26T09:29:12.333Z,5.54
2022-12-26T09:31:40.841Z,5.51
2022-12-26T09:34:09.039Z,5.50
2022-12-26T09:36:38.317Z,5.48
2022-12-26T09:39:07.341Z,5.44
2022-12-26T09:42:14.700Z,5.47
2022-12-26T09:44:51.411Z,5.51
2022-12-26T09:47:33.245Z,5.57
2022-12-26T09:50:13.255Z,5.57
2022-12-26T09:52:53.424Z,5.57
2022-12-26T09:55:49.220Z,5.59
2022-12-26T09:58:29.636Z,5.66
2022-12-26T10:01:05.491Z,5.76
2022-12-26T10:03:39.475Z,5.88
2022-12-26T10:06:20.389Z,5.96
2022-12-26T10:09:07.056Z,6.06
2022-12-26T10:12:05.830Z,6.14
2022-12-26T10:14:52.738Z,6.24
2022-12-26T10:17:32.974Z,6.29
2022-12-26T10:20:21.970Z,6.29
2022-12-26T10:22:59.615Z,6.25
2022-12-26T10:25:47.680Z,6.23
2022-12-26T10:28:17.914Z,6.22
2022-12-26T10:30:46.353Z,6.24
2022-12-26T10:33:17.815Z,6.26
2022-12-26T10:35:46.564Z,6.30
2022-12-26T10:38:27.500Z,6.38
2022-12-26T10:40:59.035Z,6.45
2022-12-26T10:43:34.625Z,6.56
2022-12-26T10:46:41.799Z,6.65
2022-12-26T10:49:14.148Z,6.73
2022-12-26T10:51:42.193Z,6.78
2022-12-26T10:54:18.049Z,6.85
2022-12-26T10:56:49.321Z,6.89
2022-12-26T10:59:21.687Z,6.91
2022-12-26T11:01:50.679Z,6.97
2022-12-26T11:04:53.111Z,7.04
2022-12-26T11:07:11.985Z,7.11
2022-12-26T11:09:45.821Z,7.18
2022-12-26T11:12:25.458Z,7.24
2022-12-26T11:14:59.142Z,7.21
2022-12-26T11:17:29.492Z,7.26
2022-12-26T11:20:15.969Z,7.41
2022-12-26T11:22:45.713Z,7.51
2022-12-26T11:25:18.714Z,7.51
2022-12-26T11:27:49.751Z,7.47
2022-12-26T11:30:22.778Z,7.38
2022-12-26T11:33:13.865Z,7.31
2022-12-26T11:36:17.553Z,7.30
2022-12-26T11:38:55.217Z,7.30
2022-12-26T11:41:31.846Z,7.33
2022-12-26T11:44:13.540Z,7.38
2022-12-26T11:46:46.527Z,7.47
2022-12-26T11:49:23.393Z,7.60
2022-12-26T11:51:57.183Z,7.70
2022-12-26T11:54:31.581Z,7.74
2022-12-26T11:57:03.647Z,7.76
2022-12-26T11:59:31.705Z,7.74
2022-12-26T12:02:16.917Z,7.74
2022-12-26T12:04:46.482Z,7.79
2022-12-26T12:07:40.469Z,7.84
2022-12-26T12:10:23.871Z,7.88
2022-12-26T12:13:17.726Z,7.81
2022-12-26T12:16:16.826Z,7.75
2022-12-26T12:19:03.206Z,7.70
2022-12-26T12:21:51.330Z,7.60
2022-12-26T12:24:29.207Z,7.54
2022-12-26T12:27:15.618Z,7.46
2022-12-26T12:30:06.670Z,7.30
2022-12-26T12:32:57.430Z,7.19
2022-12-26T12:35:33.406Z,7.19
2022-12-26T12:38:29.360Z,7.22
2022-12-26T12:40:57.445Z,7.23
2022-12-26T12:43:55.966Z,7.20
2022-12-26T12:46:30.785Z,7.16
2022-12-26T12:48:59.606Z,7.08
2022-12-26T12:51:50.659Z,7.02
2022-12-26T12:54:18.658Z,6.98
2022-12-26T12:57:14.640Z,6.94
2022-12-26T13:00:04.420Z,6.91
2022-12-26T13:02:39.144Z,6.83
2022-12-26T13:05:29.265Z,6.80
2022-12-26T13:08:21.462Z,6.78
2022-12-26T13:10:56.493Z,6.78
2022-12-26T13:13:35.792Z,6.80
2022-12-26T13:16:35.979Z,6.79
2022-12-26T13:19:13.205Z,6.78
2022-12-26T13:21:41.815Z,6.78
2022-12-26T13:24:26.707Z,6.80
2022-12-26T13:26:54.756Z,6.85
2022-12-26T13:29:31.769Z,6.85
2022-12-26T13:32:01.161Z,6.87
2022-12-26T13:34:29.296Z,6.90
2022-12-26T13:36:59.987Z,6.90
2022-12-26T13:39:27.995Z,6.91
2022-12-26T13:42:22.858Z,6.91
2022-12-26T13:44:53.529Z,6.91
2022-12-26T13:47:34.919Z,6.90
2022-12-26T13:50:41.086Z,6.86
2022-12-26T13:53:24.369Z,6.83
2022-12-26T13:55:55.054Z,6.80
2022-12-26T13:58:32.348Z,6.76
2022-12-26T14:01:09.209Z,6.75
2022-12-26T14:03:43.155Z,6.74
2022-12-26T14:06:21.523Z,6.71
2022-12-26T14:09:23.745Z,6.66
2022-12-26T14:11:57.772Z,6.68
2022-12-26T14:14:50.917Z,6.67
2022-12-26T14:17:34.247Z,6.68
2022-12-26T14:20:21.556Z,6.68
2022-12-26T14:22:49.526Z,6.66
2022-12-26T14:25:50.906Z,6.68
2022-12-26T14:28:31.539Z,6.70
2022-12-26T14:31:27.228Z,6.72
2022-12-26T14:34:27.486Z,6.74
2022-12-26T14:37:34.983Z,6.71
2022-12-26T14:40:24.513Z,6.69
2022-12-26T14:43:12.163Z,6.68
2022-12-26T14:45:42.054Z,6.66
2022-12-26T14:48:16.107Z,6.66
2022-12-26T14:50:52.886Z,6.66
2022-12-26T14:53:29.525Z,6.65
2022-12-26T14:56:15.923Z,6.69
2022-12-26T14:58:48.871Z,6.71
2022-12-26T15:01:18.111Z,6.74
2022-12-26T15:04:02.068Z,6.74
2022-12-26T15:06:39.220Z,6.71
2022-12-26T15:09:45.286Z,6.69
2022-12-26T15:12:44.530Z,6.61
2022-12-26T15:15:28.543Z,6.52
2022-12-26T15:18:18.494Z,6.48
2022-12-26T15:21:14.560Z,6.42
2022-12-26T15:24:15.544Z,6.34
2022-12-26T15:26:52.914Z,6.27
2022-12-26T15:29:45.812Z,6.21
2022-12-26T15:32:22.914Z,6.18
2022-12-26T15:35:14.152Z,6.15
2022-12-26T15:38:07.327Z,6.13
2022-12-26T15:40:50.932Z,6.16
2022-12-26T15:43:34.469Z,6.21
2022-12-26T15:46:15.394Z,6.27
2022-12-26T15:48:49.332Z,6.28
2022-12-26T15:51:35.891Z,6.26
2022-12-26T15:54:12.987Z,6.22
2022-12-26T15:56:56.066Z,6.17
2022-12-26T15:59:27.270Z,6.13
2022-12-26T16:01:56.034Z,6.10
2022-12-26T16:04:37.787Z,6.04
2022-12-26T16:07:31.821Z,5.98
2022-12-26T16:10:00.166Z,5.89
2022-12-26T16:12:30.019Z,5.83
2022-12-26T16:15:10.327Z,5.77
2022-12-26T16:17:39.282Z,5.72
2022-12-26T16:20:44.193Z,5.67
2022-12-26T16:23:16.142Z,5.60
2022-12-26T16:25:52.712Z,5.55
2022-12-26T16:28:31.236Z,5.52
2022-12-26T16:30:59.799Z,5.50
2022-12-26T16:33:44.016Z,5.45
2022-12-26T16:36:20.560Z,5.40
2022-12-26T16:38:49.027Z,5.34
2022-12-26T16:41:24.360Z,5.29
2022-12-26T16:43:57.055Z,5.25
2022-12-26T16:46:30.038Z,5.20
2022-12-26T16:49:02.058Z,5.15
2022-12-26T16:51:46.521Z,5.14
2022-12-26T16:54:27.673Z,5.10
2022-12-26T16:57:16.671Z,5.05
2022-12-26T16:59:50.596Z,4.99
2022-12-26T17:02:23.851Z,4.95
2022-12-26T17:04:58.579Z,4.92
2022-12-26T17:07:27.770Z,4.85
2022-12-26T17:10:00.516Z,4.80
2022-12-26T17:12:36.182Z,4.73
2022-12-26T17:15:05.829Z,4.66
2022-12-26T17:17:36.780Z,4.57
2022-12-26T17:20:23.571Z,4.50
2022-12-26T17:22:55.098Z,4.41
2022-12-26T17:25:31.181Z,4.34
2022-12-26T17:28:08.815Z,4.34
2022-12-26T17:30:38.601Z,4.32
2022-12-26T17:33:14.752Z,4.30
2022-12-26T17:36:38.278Z,4.28
2022-12-26T17:38:34.071Z,4.23
2022-12-26T17:41:02.855Z,4.19
2022-12-26T17:43:32.457Z,4.15
2022-12-26T17:46:01.853Z,4.12
2022-12-26T17:48:30.495Z,4.03
2022-12-26T17:50:59.536Z,4.04
2022-12-26T17:53:34.686Z,3.96
2022-12-26T17:56:24.376Z,3.90
2022-12-26T17:58:52.407Z,3.85
2022-12-26T18:01:22.216Z,3.85
2022-12-26T18:03:52.958Z,3.85
2022-12-26T18:06:22.015Z,3.87
2022-12-26T18:08:50.151Z,3.88
2022-12-26T18:11:18.196Z,3.88
2022-12-26T18:13:46.578Z,3.89
2022-12-26T18:16:15.222Z,3.92
2022-12-26T18:18:44.891Z,3.96
2022-12-26T18:21:15.356Z,3.97
2022-12-26T18:23:43.973Z,3.94
2022-12-26T18:26:20.838Z,3.91
2022-12-26T18:28:50.464Z,3.86
2022-12-26T18:31:19.073Z,3.83
2022-12-26T18:33:47.122Z,3.78
2022-12-26T18:36:16.517Z,3.69
2022-12-26T18:38:44.756Z,3.64
2022-12-26T18:41:17.661Z,3.58
2022-12-26T18:43:46.500Z,3.56
2022-12-26T18:46:19.527Z,3.56
2022-12-26T18:48:48.148Z,3.57
2022-12-26T18:51:16.068Z,3.60
2022-12-26T18:53:44.166Z,3.63
2022-12-26T18:56:18.754Z,3.66
2022-12-26T18:58:51.217Z,3.72
2022-12-26T19:01:23.967Z,3.75
2022-12-26T19:03:53.951Z,3.78
2022-12-26T19:06:28.152Z,3.79
2022-12-26T19:08:56.574Z,3.79
2022-12-26T19:11:24.953Z,3.79
2022-12-26T19:13:53.369Z,3.78
2022-12-26T19:16:23.254Z,3.73
2022-12-26T19:18:51.474Z,3.65
2022-12-26T19:21:20.061Z,3.61
2022-12-26T19:23:50.069Z,3.61
2022-12-26T19:26:19.015Z,3.62
2022-12-26T19:28:54.380Z,3.62
2022-12-26T19:31:23.268Z,3.63
2022-12-26T19:33:51.629Z,3.64
2022-12-26T19:36:19.635Z,3.64
2022-12-26T19:38:47.815Z,3.62
2022-12-26T19:41:15.857Z,3.62
2022-12-26T19:43:44.851Z,3.61
2022-12-26T19:46:17.084Z,3.59
2022-12-26T19:48:45.339Z,3.54
2022-12-26T19:51:14.851Z,3.50
2022-12-26T19:53:44.592Z,3.52
2022-12-26T19:56:18.248Z,3.53
2022-12-26T19:58:50.567Z,3.54
2022-12-26T20:01:25.315Z,3.55
2022-12-26T20:03:58.640Z,3.57
2022-12-26T20:06:28.879Z,3.57
2022-12-26T20:09:00.494Z,3.56
2022-12-26T20:11:33.908Z,3.55
2022-12-26T20:14:02.858Z,3.53
2022-12-26T20:17:04.619Z,3.41
2022-12-26T20:19:20.077Z,3.35
2022-12-26T20:21:49.115Z,3.30
2022-12-26T20:24:18.809Z,3.30
2022-12-26T20:26:47.569Z,3.30
2022-12-26T20:29:16.198Z,3.34
2022-12-26T20:31:44.500Z,3.36
2022-12-26T20:34:12.828Z,3.36
2022-12-26T20:36:41.714Z,3.38
2022-12-26T20:39:15.669Z,3.40
2022-12-26T20:41:44.122Z,3.45
2022-12-26T20:44:13.725Z,3.49
2022-12-26T20:46:42.550Z,3.49
2022-12-26T20:49:10.931Z,3.50
2022-12-26T20:51:40.980Z,3.51
2022-12-26T20:54:10.974Z,3.50
2022-12-26T20:56:40.783Z,3.49
2022-12-26T20:59:09.207Z,3.47
2022-12-26T21:01:39.485Z,3.40
2022-12-26T21:04:08.117Z,3.34
2022-12-26T21:06:40.199Z,3.31
2022-12-26T21:09:08.282Z,3.28
2022-12-26T21:11:38.434Z,3.27
2022-12-26T21:14:12.096Z,3.27
2022-12-26T21:16:45.857Z,3.28
2022-12-26T21:19:15.700Z,3.30
2022-12-26T21:21:46.961Z,3.29
2022-12-26T21:24:18.346Z,3.33
2022-12-26T21:26:46.808Z,3.36
2022-12-26T21:29:16.017Z,3.39
2022-12-26T21:31:44.569Z,3.39
2022-12-26T21:34:13.598Z,3.35
2022-12-26T21:37:02.611Z,3.31
2022-12-26T21:39:31.535Z,3.26
2022-12-26T21:42:00.439Z,3.26
2022-12-26T21:44:28.683Z,3.27
2022-12-26T21:46:56.902Z,3.27
2022-12-26T21:49:25.794Z,3.25
2022-12-26T21:51:54.054Z,3.24
2022-12-26T21:54:48.265Z,3.23
2022-12-26T21:57:18.428Z,3.21
2022-12-26T21:59:59.849Z,3.19
2022-12-26T22:02:52.161Z,3.20
2022-12-26T22:05:23.884Z,3.24
2022-12-26T22:07:54.079Z,3.27
2022-12-26T22:10:42.350Z,3.28
2022-12-26T22:13:10.482Z,3.30
2022-12-26T22:16:01.948Z,3.35
2022-12-26T22:18:32.720Z,3.40
2022-12-26T22:21:02.864Z,3.34
2022-12-26T22:23:30.924Z,3.27
2022-12-26T22:25:59.622Z,3.19
2022-12-26T22:28:29.582Z,3.15
2022-12-26T22:30:58.561Z,3.12
2022-12-26T22:33:27.401Z,3.12
2022-12-26T22:35:55.714Z,3.11
2022-12-26T22:38:23.903Z,3.06
2022-12-26T22:40:57.368Z,3.07
2022-12-26T22:43:26.331Z,3.15
2022-12-26T22:45:54.705Z,3.23
2022-12-26T22:48:23.812Z,3.30
2022-12-26T22:50:54.450Z,3.38
2022-12-26T22:53:24.264Z,3.43
2022-12-26T22:55:57.965Z,3.49
2022-12-26T22:58:26.928Z,3.54
2022-12-26T23:00:55.434Z,3.57
2022-12-26T23:03:24.400Z,3.61
2022-12-26T23:05:53.845Z,3.63
2022-12-26T23:08:24.551Z,3.70
2022-12-26T23:10:54.826Z,3.78
2022-12-26T23:13:23.612Z,3.81
2022-12-26T23:16:11.630Z,3.83
2022-12-26T23:19:10.185Z,3.85
2022-12-26T23:21:40.320Z,3.88
2022-12-26T23:24:26.275Z,3.93
2022-12-26T23:27:17.996Z,3.95
2022-12-26T23:30:04.765Z,3.98
2022-12-26T23:32:33.985Z,3.96
2022-12-26T23:35:02.247Z,3.97
2022-12-26T23:37:30.518Z,3.96
2022-12-26T23:39:58.546Z,3.96
2022-12-26T23:42:26.584Z,3.98
2022-12-26T23:44:54.633Z,3.99
2022-12-26T23:47:22.707Z,4.03
2022-12-26T23:49:50.864Z,4.05
2022-12-26T23:52:19.154Z,4.07
2022-12-26T23:54:47.161Z,4.06
2022-12-26T23:57:15.213Z,4.06
2022-12-26T23:59:43.233Z,4.07
